Station: EHBK - 13/05/2021 22:25Z (il y a 26 minutes)
EHBK 132225Z AUTO 12002KT 9999 NSC 09/09 Q1007
Vent du 120º - 2 kt
Visibilité > 10 km
Pas de nuages significatifs
Température: +09ºC - Point de rosée: +09ºC - QNH: 1007 hPa